Time;durP1;ratioP1;P1;durP2;ratioP2;P2;SDS_P1;SDS_P2;PMS_P1;PMS_P2;Temp;Humidity;BMP_temperature;BMP_pressure;BME280_temperature;BME280_humidity;BME280_pressure;Samples;Min_cycle;Max_cycle;Signal;HPM_P1;HPM_P2
2021/10/17 00:01:24;;;;;;;3.00;2.30;;;11.10;99.90;;;;;;5118763;28;20873;-69
2021/10/17 00:03:51;;;;;;;4.13;2.57;;;11.00;99.90;;;;;;5118174;28;20515;-69
2021/10/17 00:06:19;;;;;;;9.30;2.83;;;11.00;99.90;;;;;;5117666;28;20812;-69
2021/10/17 00:08:46;;;;;;;8.60;3.07;;;11.00;99.90;;;;;;5118206;28;20481;-69
2021/10/17 00:11:14;;;;;;;6.77;2.70;;;11.00;99.90;;;;;;5117247;28;20454;-69
2021/10/17 00:13:41;;;;;;;4.60;2.57;;;11.00;99.90;;;;;;5117278;28;20457;-70
2021/10/17 00:16:08;;;;;;;4.23;2.67;;;11.00;99.90;;;;;;5117626;28;20463;-69
2021/10/17 00:18:34;;;;;;;3.80;2.47;;;11.00;99.90;;;;;;5117492;28;20454;-69
2021/10/17 00:21:01;;;;;;;2.93;2.53;;;10.90;99.90;;;;;;5117395;28;20494;-69
2021/10/17 00:23:28;;;;;;;5.40;2.50;;;10.90;99.90;;;;;;5117451;28;20763;-69
2021/10/17 00:25:55;;;;;;;3.30;2.43;;;10.90;99.90;;;;;;5117265;28;20457;-69
2021/10/17 00:28:23;;;;;;;8.23;2.87;;;10.90;99.90;;;;;;5117072;28;20460;-69
2021/10/17 00:30:49;;;;;;;5.27;2.73;;;10.90;99.90;;;;;;5117575;28;20456;-70
2021/10/17 00:33:16;;;;;;;5.50;2.37;;;10.90;99.90;;;;;;5117625;28;20520;-69
2021/10/17 00:35:43;;;;;;;4.73;2.87;;;10.90;99.90;;;;;;5116787;28;20488;-69
2021/10/17 00:38:10;;;;;;;6.70;3.13;;;10.90;99.90;;;;;;5117136;28;20456;-69
2021/10/17 00:40:37;;;;;;;8.10;2.80;;;11.00;99.90;;;;;;5116791;28;20484;-69
2021/10/17 00:43:06;;;;;;;5.37;2.90;;;10.90;99.90;;;;;;5117025;28;20461;-69
2021/10/17 00:45:34;;;;;;;3.47;2.97;;;10.90;99.90;;;;;;5116780;27;20467;-69
2021/10/17 00:48:04;;;;;;;3.60;2.50;;;10.90;99.90;;;;;;5117001;28;20457;-69
2021/10/17 00:50:31;;;;;;;5.43;3.20;;;10.90;99.90;;;;;;5116838;28;20451;-69
2021/10/17 00:52:58;;;;;;;3.20;2.40;;;10.90;99.90;;;;;;5117133;28;20460;-69
2021/10/17 00:55:28;;;;;;;4.63;2.20;;;10.90;99.90;;;;;;5117250;28;20467;-69
2021/10/17 00:57:55;;;;;;;3.80;2.27;;;10.90;99.90;;;;;;5116992;28;20437;-69
2021/10/17 01:00:22;;;;;;;3.50;2.80;;;10.90;99.90;;;;;;5116548;28;20985;-69
2021/10/17 01:02:50;;;;;;;6.73;2.63;;;10.90;99.90;;;;;;5116653;28;20457;-69
2021/10/17 01:05:17;;;;;;;4.37;2.70;;;10.90;99.90;;;;;;5116429;28;20798;-69
2021/10/17 01:07:45;;;;;;;9.57;3.03;;;10.90;99.90;;;;;;5115901;28;20552;-69
2021/10/17 01:10:12;;;;;;;4.03;2.77;;;10.90;99.90;;;;;;5115914;28;20909;-69
2021/10/17 01:12:39;;;;;;;4.00;2.97;;;10.80;99.90;;;;;;5116154;28;20465;-69
2021/10/17 01:15:08;;;;;;;5.50;2.20;;;10.70;99.90;;;;;;5116241;28;20452;-69
2021/10/17 01:17:35;;;;;;;5.93;2.90;;;10.70;99.90;;;;;;5116394;28;20793;-69
2021/10/17 01:20:04;;;;;;;6.30;2.43;;;10.70;99.90;;;;;;5116005;27;20857;-69
2021/10/17 01:22:31;;;;;;;4.03;2.17;;;10.80;99.90;;;;;;5115855;28;20944;-69
2021/10/17 01:24:58;;;;;;;6.07;2.67;;;10.80;99.90;;;;;;5115782;27;20471;-69
2021/10/17 01:27:24;;;;;;;6.13;3.00;;;10.80;99.90;;;;;;5115969;28;20457;-69
2021/10/17 01:29:53;;;;;;;6.30;2.93;;;10.80;99.90;;;;;;5115905;28;20451;-69
2021/10/17 01:32:20;;;;;;;11.80;3.43;;;10.80;99.90;;;;;;5116318;28;20461;-69
2021/10/17 01:34:46;;;;;;;4.80;2.30;;;10.80;99.90;;;;;;5116011;28;20457;-69
2021/10/17 01:37:14;;;;;;;7.50;2.50;;;10.70;99.90;;;;;;5115761;28;20461;-69
2021/10/17 01:39:41;;;;;;;5.07;2.57;;;10.70;99.90;;;;;;5115631;28;20468;-69
2021/10/17 01:42:08;;;;;;;5.90;2.73;;;10.70;99.90;;;;;;5115864;28;20502;-69
2021/10/17 01:44:36;;;;;;;5.13;2.47;;;10.70;99.90;;;;;;5115624;28;20463;-69
2021/10/17 01:47:06;;;;;;;6.47;2.60;;;10.70;99.90;;;;;;5115171;28;20459;-69
2021/10/17 01:49:34;;;;;;;3.70;2.37;;;10.70;99.90;;;;;;5115672;28;20467;-69
2021/10/17 01:52:01;;;;;;;4.33;2.70;;;10.60;99.90;;;;;;5115583;28;20459;-69
2021/10/17 01:54:29;;;;;;;6.07;2.67;;;10.60;99.90;;;;;;5115474;28;20823;-69
2021/10/17 01:56:56;;;;;;;5.13;2.80;;;10.60;99.90;;;;;;5115677;28;20459;-69
2021/10/17 01:59:22;;;;;;;5.80;2.37;;;10.60;99.90;;;;;;5115613;28;20930;-69
2021/10/17 02:01:49;;;;;;;5.50;2.77;;;10.60;99.90;;;;;;5114954;28;20978;-69
2021/10/17 02:04:16;;;;;;;5.17;2.67;;;10.60;99.90;;;;;;5115737;28;20483;-69
2021/10/17 02:06:42;;;;;;;4.60;3.27;;;10.60;99.90;;;;;;5115137;28;20495;-69
2021/10/17 02:09:09;;;;;;;5.63;3.17;;;10.60;99.90;;;;;;5115510;28;20802;-69
2021/10/17 02:11:37;;;;;;;8.03;3.70;;;10.50;99.90;;;;;;5115257;28;20458;-69
2021/10/17 02:14:04;;;;;;;6.70;3.00;;;10.40;99.90;;;;;;5115139;28;20945;-69
2021/10/17 02:16:31;;;;;;;3.90;2.80;;;10.40;99.90;;;;;;5114751;28;20841;-69
2021/10/17 02:18:58;;;;;;;6.80;3.30;;;10.50;99.90;;;;;;5114937;28;20921;-69
2021/10/17 02:21:24;;;;;;;8.77;3.00;;;10.50;99.90;;;;;;5115297;28;20551;-69
2021/10/17 02:23:51;;;;;;;4.17;2.70;;;10.50;99.90;;;;;;5115254;28;20453;-69
2021/10/17 02:26:18;;;;;;;7.00;3.50;;;10.40;99.90;;;;;;5114887;28;20461;-69
2021/10/17 02:28:46;;;;;;;6.03;2.80;;;10.50;99.90;;;;;;5114899;28;20459;-70
2021/10/17 02:31:13;;;;;;;5.33;2.90;;;10.50;99.90;;;;;;5114648;28;20450;-69
2021/10/17 02:33:40;;;;;;;4.80;2.90;;;10.50;99.90;;;;;;5114952;28;20923;-69
2021/10/17 02:36:07;;;;;;;8.90;2.63;;;10.50;99.90;;;;;;5114788;28;21032;-69
2021/10/17 02:38:34;;;;;;;2.80;2.23;;;10.60;99.90;;;;;;5114837;28;20884;-69
2021/10/17 02:41:00;;;;;;;5.63;3.10;;;10.50;99.90;;;;;;5115311;28;20480;-69
2021/10/17 02:43:27;;;;;;;5.23;2.47;;;10.60;99.90;;;;;;5115036;28;20467;-69
2021/10/17 02:45:55;;;;;;;6.80;2.90;;;10.60;99.90;;;;;;5114925;28;20467;-69
2021/10/17 02:48:22;;;;;;;4.63;2.47;;;10.50;99.90;;;;;;5114827;28;20467;-69
2021/10/17 02:50:48;;;;;;;4.60;2.50;;;10.50;99.90;;;;;;5114622;28;20457;-69
2021/10/17 02:53:15;;;;;;;3.00;2.00;;;10.60;99.90;;;;;;5114882;28;20548;-69
2021/10/17 02:55:42;;;;;;;9.13;3.83;;;10.60;99.90;;;;;;5114830;28;20500;-69
2021/10/17 02:58:08;;;;;;;5.20;2.70;;;10.60;99.90;;;;;;5114709;28;20914;-69
2021/10/17 03:00:35;;;;;;;5.27;2.50;;;10.60;99.90;;;;;;5114970;28;20476;-68
2021/10/17 03:03:04;;;;;;;6.20;2.80;;;10.60;99.90;;;;;;5114985;28;20793;-69
2021/10/17 03:05:31;;;;;;;4.33;2.40;;;10.60;99.90;;;;;;5114677;28;20570;-69
2021/10/17 03:07:58;;;;;;;3.77;2.40;;;10.60;99.90;;;;;;5114526;28;20498;-69
2021/10/17 03:10:24;;;;;;;5.60;2.50;;;10.60;99.90;;;;;;5114680;28;20465;-69
2021/10/17 03:12:51;;;;;;;4.80;2.70;;;10.60;99.90;;;;;;5114658;28;20815;-69
2021/10/17 03:15:18;;;;;;;4.80;2.63;;;10.60;99.90;;;;;;5115058;28;20453;-69
2021/10/17 03:17:45;;;;;;;5.03;2.70;;;10.60;99.90;;;;;;5114706;28;20452;-69
2021/10/17 03:20:13;;;;;;;4.10;2.53;;;10.60;99.90;;;;;;5114548;28;20756;-69
2021/10/17 03:22:40;;;;;;;8.77;2.83;;;10.60;99.90;;;;;;5115096;28;21077;-70
2021/10/17 03:25:08;;;;;;;3.93;2.53;;;10.60;99.90;;;;;;5115843;28;20466;-69
2021/10/17 03:27:36;;;;;;;4.40;2.83;;;10.60;99.90;;;;;;5116323;28;20459;-69
2021/10/17 03:30:03;;;;;;;5.00;2.77;;;10.50;99.90;;;;;;5118314;28;20805;-69
2021/10/17 03:32:32;;;;;;;8.23;3.00;;;10.40;99.90;;;;;;5118280;28;20453;-69
2021/10/17 03:35:02;;;;;;;6.40;3.60;;;10.30;99.90;;;;;;5118184;28;20459;-69
2021/10/17 03:37:31;;;;;;;3.60;3.10;;;10.20;99.90;;;;;;5118339;28;20468;-69
2021/10/17 03:39:58;;;;;;;4.67;3.07;;;10.20;99.90;;;;;;5118291;28;20460;-69
2021/10/17 03:42:25;;;;;;;7.73;3.50;;;10.20;99.90;;;;;;5118040;28;20510;-69
2021/10/17 03:44:53;;;;;;;8.90;3.50;;;10.10;99.90;;;;;;5118619;28;20800;-69
2021/10/17 03:47:19;;;;;;;3.00;2.70;;;10.10;99.90;;;;;;5117720;28;20452;-69
2021/10/17 03:49:46;;;;;;;7.50;2.80;;;10.10;99.90;;;;;;5117709;28;20457;-69
2021/10/17 03:52:13;;;;;;;5.70;3.00;;;10.10;99.90;;;;;;5118135;28;20486;-69
2021/10/17 03:54:43;;;;;;;5.00;2.80;;;10.00;99.90;;;;;;5117919;28;20461;-69
2021/10/17 03:57:10;;;;;;;4.57;3.20;;;10.00;99.90;;;;;;5117881;28;20448;-69
2021/10/17 03:59:37;;;;;;;5.77;3.20;;;10.00;99.90;;;;;;5117600;28;20456;-69
2021/10/17 04:02:04;;;;;;;5.17;2.97;;;9.90;99.90;;;;;;5117737;28;20488;-69
2021/10/17 04:04:30;;;;;;;6.67;2.90;;;9.80;99.90;;;;;;5117981;28;20786;-69
2021/10/17 04:06:57;;;;;;;6.03;3.40;;;9.80;99.90;;;;;;5117267;28;20491;-69
2021/10/17 04:09:24;;;;;;;5.30;3.20;;;9.80;99.90;;;;;;5117567;28;20831;-70
2021/10/17 04:11:52;;;;;;;6.13;3.17;;;9.80;99.90;;;;;;5117382;28;20454;-70
2021/10/17 04:14:18;;;;;;;8.00;2.80;;;9.80;99.90;;;;;;5117641;28;20459;-70
2021/10/17 04:16:45;;;;;;;5.57;2.53;;;9.80;99.90;;;;;;5117121;28;20536;-69
2021/10/17 04:19:12;;;;;;;6.83;3.70;;;9.80;99.90;;;;;;5117378;28;20532;-69
2021/10/17 04:21:38;;;;;;;5.67;2.90;;;9.80;99.90;;;;;;5117331;27;20800;-70
2021/10/17 04:24:06;;;;;;;5.17;3.17;;;9.80;99.90;;;;;;5117348;28;20467;-70
2021/10/17 04:26:33;;;;;;;3.93;2.63;;;9.70;99.90;;;;;;5117552;28;20459;-70
2021/10/17 04:29:01;;;;;;;5.70;3.00;;;9.70;99.90;;;;;;5117495;28;20779;-70
2021/10/17 04:31:30;;;;;;;8.93;3.13;;;9.70;99.90;;;;;;5117239;28;20788;-70
2021/10/17 04:33:57;;;;;;;6.03;3.33;;;9.60;99.90;;;;;;5117153;28;20520;-69
2021/10/17 04:36:24;;;;;;;4.90;2.43;;;9.60;99.90;;;;;;5117166;28;20454;-69
2021/10/17 04:38:51;;;;;;;5.43;2.60;;;9.60;99.90;;;;;;5116744;28;20816;-70
2021/10/17 04:41:18;;;;;;;5.67;2.90;;;9.50;99.90;;;;;;5117188;28;20483;-70
2021/10/17 04:43:48;;;;;;;5.07;2.60;;;9.50;99.90;;;;;;5116690;28;20458;-70
2021/10/17 04:46:16;;;;;;;4.37;2.90;;;9.50;99.90;;;;;;5116739;28;20758;-70
2021/10/17 04:48:43;;;;;;;6.93;2.90;;;9.50;99.90;;;;;;5116585;28;20453;-70
2021/10/17 04:51:10;;;;;;;8.10;2.20;;;9.50;99.90;;;;;;5116847;28;20921;-69
2021/10/17 04:53:36;;;;;;;7.77;3.03;;;9.40;99.90;;;;;;5116398;28;20532;-70
2021/10/17 04:56:04;;;;;;;5.40;2.70;;;9.50;99.90;;;;;;5116358;28;20929;-70
2021/10/17 04:58:30;;;;;;;3.93;2.60;;;9.40;99.90;;;;;;5117622;28;20510;-70
2021/10/17 05:00:57;;;;;;;2.80;1.93;;;9.40;99.90;;;;;;5116236;28;20468;-70
2021/10/17 05:03:25;;;;;;;7.60;2.67;;;9.40;99.90;;;;;;5116784;28;20452;-70
2021/10/17 05:05:52;;;;;;;3.77;2.30;;;9.40;99.90;;;;;;5116610;28;20797;-70
2021/10/17 05:08:18;;;;;;;8.73;2.80;;;9.30;99.90;;;;;;5116230;28;20484;-70
2021/10/17 05:10:45;;;;;;;5.43;2.80;;;9.30;99.90;;;;;;5116763;28;20472;-70
2021/10/17 05:13:12;;;;;;;5.40;2.43;;;9.30;99.90;;;;;;5116358;28;20551;-70
2021/10/17 05:15:39;;;;;;;5.03;2.40;;;9.20;99.90;;;;;;5116349;28;20456;-70
2021/10/17 05:18:06;;;;;;;6.60;2.90;;;9.20;99.90;;;;;;5116647;28;20455;-70
2021/10/17 05:20:34;;;;;;;4.33;2.13;;;9.20;99.90;;;;;;5116454;28;20529;-69
2021/10/17 05:23:00;;;;;;;9.63;3.17;;;9.20;99.90;;;;;;5116328;28;20457;-69
2021/10/17 05:25:27;;;;;;;4.03;2.30;;;9.20;99.90;;;;;;5116544;28;20754;-70
2021/10/17 05:27:54;;;;;;;8.43;2.30;;;9.20;99.90;;;;;;5116149;28;20534;-70
2021/10/17 05:30:21;;;;;;;5.30;2.43;;;9.20;99.90;;;;;;5116508;28;20457;-70
2021/10/17 05:32:47;;;;;;;8.73;3.67;;;9.20;99.90;;;;;;5117459;28;20827;-69
2021/10/17 05:35:14;;;;;;;4.40;2.77;;;9.10;99.90;;;;;;5118771;28;20457;-70
2021/10/17 05:37:42;;;;;;;7.40;2.70;;;9.20;99.90;;;;;;5118073;28;20467;-70
2021/10/17 05:40:09;;;;;;;7.10;2.60;;;9.10;99.90;;;;;;5120701;28;20819;-69
2021/10/17 05:42:36;;;;;;;8.50;3.10;;;9.10;99.90;;;;;;5125366;28;20480;-69
2021/10/17 05:45:03;;;;;;;5.20;2.33;;;9.10;99.90;;;;;;5118697;28;20517;-69
2021/10/17 05:47:30;;;;;;;8.23;2.40;;;9.10;99.90;;;;;;5115971;28;20966;-69
2021/10/17 05:49:57;;;;;;;6.00;3.00;;;9.10;99.90;;;;;;5115170;28;20465;-69
2021/10/17 05:52:23;;;;;;;5.13;2.53;;;9.10;99.90;;;;;;5115684;28;20474;-69
2021/10/17 05:54:51;;;;;;;4.83;2.60;;;9.20;99.90;;;;;;5115880;28;20483;-70
2021/10/17 05:57:18;;;;;;;2.87;2.57;;;9.20;99.90;;;;;;5115644;28;20454;-70
2021/10/17 05:59:45;;;;;;;6.30;2.97;;;9.20;99.90;;;;;;5115457;28;20460;-70
2021/10/17 06:02:12;;;;;;;5.03;2.77;;;9.30;99.90;;;;;;5115138;28;21089;-70
2021/10/17 06:04:38;;;;;;;9.40;3.07;;;9.30;99.90;;;;;;5115737;28;20458;-70
2021/10/17 06:07:05;;;;;;;5.00;2.73;;;9.30;99.90;;;;;;5115449;28;20489;-69
2021/10/17 06:09:38;;;;;;;4.10;2.70;;;9.30;99.90;;;;;;5115504;28;20486;-69
2021/10/17 06:12:08;;;;;;;7.93;2.53;;;9.30;99.90;;;;;;5115574;28;20454;-69
2021/10/17 06:14:34;;;;;;;7.40;2.93;;;9.40;99.90;;;;;;5115601;28;20456;-70
2021/10/17 06:17:01;;;;;;;7.17;2.40;;;9.40;99.90;;;;;;5115336;28;20456;-69
2021/10/17 06:19:28;;;;;;;6.97;3.27;;;9.40;99.90;;;;;;5115377;28;20927;-69
2021/10/17 06:21:55;;;;;;;4.70;2.17;;;9.50;99.90;;;;;;5114984;28;20997;-70
2021/10/17 06:24:21;;;;;;;8.90;2.80;;;9.50;99.90;;;;;;5115741;28;20461;-70
2021/10/17 06:26:48;;;;;;;4.47;2.90;;;9.60;99.90;;;;;;5115258;28;20453;-70
2021/10/17 06:29:16;;;;;;;7.20;2.63;;;9.60;99.90;;;;;;5115525;28;20465;-70
2021/10/17 06:31:43;;;;;;;8.70;2.97;;;9.70;99.90;;;;;;5115454;28;20471;-70
2021/10/17 06:34:09;;;;;;;3.70;2.20;;;9.70;99.90;;;;;;5115164;28;20463;-70
2021/10/17 06:36:36;;;;;;;12.87;2.80;;;9.70;99.90;;;;;;5115244;28;20783;-70
2021/10/17 06:39:03;;;;;;;6.23;2.47;;;9.80;99.90;;;;;;5115357;28;20910;-70
2021/10/17 06:41:29;;;;;;;5.77;2.77;;;9.70;99.90;;;;;;5114945;28;20571;-69
2021/10/17 06:43:56;;;;;;;5.70;2.87;;;9.80;99.90;;;;;;5114577;28;20533;-69
2021/10/17 06:46:24;;;;;;;6.43;2.70;;;9.80;99.90;;;;;;5115251;28;20468;-69
2021/10/17 06:48:51;;;;;;;6.53;3.17;;;9.90;99.90;;;;;;5115273;28;20819;-69
2021/10/17 06:51:18;;;;;;;6.67;2.60;;;9.90;99.90;;;;;;5115660;28;20786;-69
2021/10/17 06:53:44;;;;;;;8.20;3.37;;;9.90;99.90;;;;;;5115819;28;20823;-70
2021/10/17 06:56:11;;;;;;;6.30;2.70;;;9.90;99.90;;;;;;5115405;28;20588;-70
2021/10/17 06:58:38;;;;;;;6.30;2.33;;;10.00;99.90;;;;;;5115227;28;20458;-70
2021/10/17 07:01:04;;;;;;;6.27;2.80;;;10.00;99.90;;;;;;5115944;28;20494;-70
2021/10/17 07:03:33;;;;;;;7.93;3.50;;;10.00;99.90;;;;;;5118891;28;20468;-70
2021/10/17 07:05:59;;;;;;;4.20;2.00;;;10.00;99.90;;;;;;5118837;28;20448;-70
2021/10/17 07:08:26;;;;;;;7.97;3.10;;;10.00;99.90;;;;;;5118812;28;20452;-70
2021/10/17 07:10:53;;;;;;;4.90;2.20;;;10.00;99.90;;;;;;5118775;27;20925;-70
2021/10/17 07:13:19;;;;;;;5.30;2.40;;;10.10;99.90;;;;;;5118306;27;20454;-70
2021/10/17 07:15:46;;;;;;;8.53;3.07;;;10.10;99.90;;;;;;5118516;27;20455;-70
2021/10/17 07:18:13;;;;;;;6.70;3.37;;;10.10;99.90;;;;;;5118465;28;20467;-70
2021/10/17 07:20:41;;;;;;;4.63;2.77;;;10.10;99.90;;;;;;5118410;28;20926;-70
2021/10/17 07:23:08;;;;;;;4.53;2.30;;;10.20;99.90;;;;;;5118462;28;20481;-70
2021/10/17 07:25:35;;;;;;;5.10;3.00;;;10.20;99.90;;;;;;5118450;28;20460;-70
2021/10/17 07:28:01;;;;;;;4.43;2.73;;;10.20;99.90;;;;;;5118473;28;20503;-70
2021/10/17 07:30:28;;;;;;;4.07;2.80;;;10.30;99.90;;;;;;5118782;28;20469;-70
2021/10/17 07:32:55;;;;;;;4.67;2.90;;;10.30;99.90;;;;;;5118275;28;20456;-70
2021/10/17 07:35:22;;;;;;;4.63;2.47;;;10.40;99.90;;;;;;5118105;28;20471;-70
2021/10/17 07:37:50;;;;;;;5.83;2.63;;;10.40;99.90;;;;;;5118610;28;20473;-70
2021/10/17 07:40:17;;;;;;;11.20;3.17;;;10.40;99.90;;;;;;5119100;28;20464;-70
2021/10/17 07:42:45;;;;;;;4.83;2.60;;;10.40;99.90;;;;;;5118057;28;20502;-70
2021/10/17 07:45:12;;;;;;;8.23;2.90;;;10.50;99.90;;;;;;5117839;28;20935;-70
2021/10/17 07:47:42;;;;;;;6.63;3.07;;;10.50;99.90;;;;;;5117812;28;20819;-70
2021/10/17 07:50:09;;;;;;;8.33;3.70;;;10.50;99.90;;;;;;5118212;28;20467;-70
2021/10/17 07:52:37;;;;;;;3.20;2.53;;;10.50;99.90;;;;;;5118499;28;20459;-70
2021/10/17 07:55:06;;;;;;;5.80;3.03;;;10.50;99.90;;;;;;5117688;28;20927;-68
2021/10/17 07:57:45;;;;;;;5.63;2.60;;;10.50;99.90;;;;;;5118133;28;20457;-70
2021/10/17 08:00:12;;;;;;;7.33;3.07;;;10.60;99.90;;;;;;5117323;28;20668;-69
2021/10/17 08:02:39;;;;;;;4.50;2.80;;;10.60;99.90;;;;;;5117769;28;20824;-69
2021/10/17 08:05:06;;;;;;;5.20;3.10;;;10.60;99.90;;;;;;5117583;28;20472;-70
2021/10/17 08:07:33;;;;;;;6.87;3.80;;;10.60;99.90;;;;;;5117482;28;20931;-70
2021/10/17 08:10:01;;;;;;;8.63;4.30;;;10.60;99.90;;;;;;5117528;28;20468;-71
2021/10/17 08:12:32;;;;;;;4.73;3.27;;;10.70;99.90;;;;;;5117293;28;20523;-70
2021/10/17 08:14:58;;;;;;;5.87;3.70;;;10.70;99.90;;;;;;5117514;28;20777;-70
2021/10/17 08:17:25;;;;;;;5.80;3.33;;;10.80;99.90;;;;;;5117831;28;20463;-70
2021/10/17 08:19:52;;;;;;;5.10;2.93;;;10.90;99.90;;;;;;5117433;28;20464;-70
2021/10/17 08:22:19;;;;;;;6.27;3.70;;;10.90;99.90;;;;;;5117129;28;20553;-71
2021/10/17 08:24:45;;;;;;;6.63;3.50;;;10.90;99.90;;;;;;5117609;28;20456;-69
2021/10/17 08:27:15;;;;;;;10.63;3.90;;;11.00;99.90;;;;;;5117321;28;20970;-70
2021/10/17 08:29:43;;;;;;;12.43;3.63;;;11.00;99.90;;;;;;5117925;28;20476;-70
2021/10/17 08:32:13;;;;;;;8.10;4.17;;;11.00;99.90;;;;;;5118325;28;20454;-70
2021/10/17 08:34:40;;;;;;;8.30;3.13;;;11.00;99.90;;;;;;5118541;28;20862;-70
2021/10/17 08:37:11;;;;;;;5.27;4.53;;;11.00;99.90;;;;;;5118929;28;20461;-71
2021/10/17 08:39:38;;;;;;;6.27;3.20;;;11.00;99.90;;;;;;5118586;28;20451;-70
2021/10/17 08:42:05;;;;;;;7.17;3.50;;;11.00;99.90;;;;;;5119510;28;20476;-70
2021/10/17 08:44:32;;;;;;;6.23;3.47;;;11.10;99.90;;;;;;5118956;28;20449;-70
2021/10/17 08:47:01;;;;;;;5.47;3.57;;;11.20;99.90;;;;;;5119844;28;20468;-70
2021/10/17 08:49:29;;;;;;;4.60;3.17;;;11.30;99.90;;;;;;5117951;28;20971;-70
2021/10/17 08:51:56;;;;;;;6.93;3.33;;;11.40;99.90;;;;;;5118176;27;20460;-71
2021/10/17 08:54:22;;;;;;;7.20;3.30;;;11.40;99.90;;;;;;5117418;28;20473;-70
2021/10/17 08:56:49;;;;;;;5.50;3.40;;;11.40;99.90;;;;;;5119984;28;20457;-70
2021/10/17 08:59:16;;;;;;;4.07;3.03;;;11.40;99.90;;;;;;5120799;28;20456;-70
2021/10/17 09:01:43;;;;;;;8.53;3.90;;;11.50;99.90;;;;;;5117395;28;20787;-70
2021/10/17 09:04:15;;;;;;;8.93;3.63;;;11.50;99.90;;;;;;5116603;28;20447;-70
2021/10/17 09:06:44;;;;;;;7.87;3.60;;;11.50;99.90;;;;;;5116520;27;20491;-72
2021/10/17 09:09:11;;;;;;;3.70;2.77;;;11.60;99.90;;;;;;5116574;28;20779;-70
2021/10/17 09:11:40;;;;;;;7.60;3.53;;;11.60;99.90;;;;;;5115864;28;20919;-70
2021/10/17 09:14:10;;;;;;;4.90;3.13;;;11.70;99.90;;;;;;5116084;28;20520;-70
2021/10/17 09:16:37;;;;;;;8.30;3.53;;;11.80;99.90;;;;;;5115888;28;20946;-70
2021/10/17 09:19:21;;;;;;;6.17;3.67;;;11.90;99.90;;;;;;5115995;28;20949;-71
2021/10/17 09:22:00;;;;;;;8.63;4.13;;;12.00;99.90;;;;;;5116262;28;20764;-70
2021/10/17 09:24:29;;;;;;;7.97;3.10;;;12.10;99.90;;;;;;5115337;28;20426;-70
2021/10/17 09:27:04;;;;;;;7.00;3.43;;;12.30;99.90;;;;;;5115821;28;20448;-71
2021/10/17 09:29:31;;;;;;;4.40;2.97;;;12.40;99.90;;;;;;5115998;28;20448;-71
2021/10/17 09:32:01;;;;;;;9.57;5.60;;;12.40;99.90;;;;;;5116120;28;20467;-70
2021/10/17 09:34:29;;;;;;;6.50;3.47;;;12.50;99.90;;;;;;5115527;28;20485;-70
2021/10/17 09:37:07;;;;;;;11.40;3.63;;;12.60;99.90;;;;;;5116218;28;20462;-70
2021/10/17 09:39:35;;;;;;;5.73;3.20;;;12.60;99.90;;;;;;5115639;28;20429;-70
2021/10/17 09:42:03;;;;;;;9.57;3.77;;;12.50;99.90;;;;;;5115557;28;20539;-70
2021/10/17 09:44:41;;;;;;;7.00;3.70;;;12.50;99.90;;;;;;5116378;28;20468;-70
2021/10/17 09:47:09;;;;;;;8.73;3.47;;;12.60;99.90;;;;;;5115898;28;20877;-70
2021/10/17 09:49:41;;;;;;;7.03;3.13;;;12.60;99.90;;;;;;5116111;28;20783;-70
2021/10/17 09:52:14;;;;;;;7.23;3.10;;;12.60;99.90;;;;;;5116195;28;20449;-70
2021/10/17 09:54:41;;;;;;;4.90;3.10;;;12.50;99.90;;;;;;5115920;28;20456;-70
2021/10/17 09:57:09;;;;;;;6.60;3.57;;;12.50;99.90;;;;;;5115891;28;20891;-70
2021/10/17 09:59:38;;;;;;;6.50;2.83;;;12.60;99.90;;;;;;5117349;28;20823;-71
2021/10/17 10:02:08;;;;;;;7.20;2.90;;;12.60;99.90;;;;;;5115431;28;20950;-70
2021/10/17 10:04:38;;;;;;;6.57;3.07;;;12.70;99.90;;;;;;5114886;28;20510;-70
2021/10/17 10:07:06;;;;;;;7.00;3.43;;;12.70;99.90;;;;;;5115331;27;20559;-70
2021/10/17 10:09:33;;;;;;;6.37;3.37;;;12.80;99.90;;;;;;5115311;28;20460;-70
2021/10/17 10:12:02;;;;;;;6.03;3.00;;;12.80;99.90;;;;;;5115414;28;20452;-70
2021/10/17 10:14:31;;;;;;;4.03;2.80;;;12.90;99.90;;;;;;5115594;28;20449;-70
2021/10/17 10:16:59;;;;;;;4.83;3.03;;;12.90;99.90;;;;;;5115585;28;20491;-70
2021/10/17 10:19:26;;;;;;;8.50;3.10;;;13.00;99.90;;;;;;5115613;28;20460;-70
2021/10/17 10:21:52;;;;;;;9.97;2.63;;;13.10;99.90;;;;;;5115370;28;20467;-70
2021/10/17 10:24:21;;;;;;;6.90;3.40;;;13.20;99.90;;;;;;5115217;28;20500;-71
2021/10/17 10:26:53;;;;;;;8.27;2.83;;;13.20;99.90;;;;;;5115400;28;20463;-69
2021/10/17 10:29:27;;;;;;;11.97;3.70;;;13.10;99.90;;;;;;5114982;28;20441;-70
2021/10/17 10:31:55;;;;;;;7.43;2.93;;;13.20;99.90;;;;;;5115582;28;20468;-69
2021/10/17 10:34:54;;;;;;;7.10;3.60;;;13.30;99.90;;;;;;5114712;28;20444;-70
2021/10/17 10:37:23;;;;;;;7.53;3.20;;;13.30;99.90;;;;;;5116379;28;20455;-70
2021/10/17 10:40:17;;;;;;;6.87;3.37;;;13.40;99.90;;;;;;5119172;28;20470;-72
2021/10/17 10:42:46;;;;;;;7.90;3.73;;;13.30;99.90;;;;;;5119310;28;20486;-71
2021/10/17 10:45:26;;;;;;;5.67;3.70;;;13.40;99.90;;;;;;5119323;28;20834;-69
2021/10/17 10:48:23;;;;;;;4.07;2.60;;;13.40;99.90;;;;;;5119499;28;20456;-70
2021/10/17 10:50:53;;;;;;;6.03;3.20;;;13.50;99.90;;;;;;5119514;28;20466;-70
2021/10/17 10:53:45;;;;;;;7.87;3.40;;;13.50;99.90;;;;;;5119096;28;20449;-69
2021/10/17 10:56:41;;;;;;;11.90;3.00;;;13.50;99.90;;;;;;5119404;28;20471;-69
2021/10/17 10:59:09;;;;;;;5.73;4.03;;;13.20;99.90;;;;;;5118984;28;20453;-71
2021/10/17 11:01:53;;;;;;;6.23;3.20;;;13.10;99.90;;;;;;5119479;28;20465;-70
2021/10/17 11:04:56;;;;;;;6.27;3.03;;;13.00;99.90;;;;;;5119401;28;20480;-70
2021/10/17 11:07:24;;;;;;;7.30;3.30;;;13.00;99.90;;;;;;5118577;28;20480;-70
2021/10/17 11:09:53;;;;;;;5.40;3.00;;;13.00;99.90;;;;;;5118320;28;20909;-74
2021/10/17 11:12:45;;;;;;;5.97;3.30;;;12.90;99.90;;;;;;5118586;28;20924;-70
2021/10/17 11:15:13;;;;;;;10.60;3.30;;;12.80;99.90;;;;;;5118762;28;20777;-71
2021/10/17 11:17:48;;;;;;;8.40;3.87;;;12.70;99.90;;;;;;5118435;28;20924;-70
2021/10/17 11:20:18;;;;;;;6.77;3.97;;;12.80;99.90;;;;;;5118655;27;20456;-69
2021/10/17 11:22:45;;;;;;;7.50;4.03;;;12.80;99.90;;;;;;5118454;27;20459;-71
2021/10/17 11:25:15;;;;;;;7.43;4.00;;;12.80;99.90;;;;;;5118658;28;20468;-70
2021/10/17 11:27:42;;;;;;;7.83;3.80;;;12.90;99.90;;;;;;5118196;28;20437;-71
2021/10/17 11:30:21;;;;;;;10.17;4.07;;;13.10;99.90;;;;;;5118215;28;20464;-71
2021/10/17 11:32:48;;;;;;;7.90;3.90;;;13.40;99.90;;;;;;5118457;28;20448;-71
2021/10/17 11:35:16;;;;;;;8.70;4.07;;;13.60;99.90;;;;;;5117857;28;20930;-71
2021/10/17 11:37:51;;;;;;;9.57;4.17;;;13.60;99.90;;;;;;5118236;28;20463;-70
2021/10/17 11:40:18;;;;;;;8.83;4.00;;;13.60;99.90;;;;;;5118063;28;20874;-70
2021/10/17 11:42:46;;;;;;;11.83;3.67;;;13.60;99.90;;;;;;5118157;28;20453;-70
2021/10/17 11:45:20;;;;;;;8.40;3.20;;;13.40;99.90;;;;;;5118186;28;20559;-70
2021/10/17 11:47:49;;;;;;;7.97;3.30;;;13.50;99.90;;;;;;5116751;28;20459;-71
2021/10/17 11:50:19;;;;;;;9.50;3.80;;;13.50;99.90;;;;;;5118029;28;20521;-71
2021/10/17 11:52:51;;;;;;;10.80;3.40;;;13.50;99.90;;;;;;5117688;28;20818;-71
2021/10/17 11:55:35;;;;;;;7.73;3.37;;;13.50;99.90;;;;;;5117472;28;20468;-71
2021/10/17 11:58:03;;;;;;;10.47;4.10;;;13.40;99.90;;;;;;5117829;28;20447;-71
2021/10/17 12:00:33;;;;;;;10.60;3.83;;;13.40;99.90;;;;;;5117739;28;20494;-70
2021/10/17 12:03:00;;;;;;;10.97;4.70;;;13.40;99.90;;;;;;5117596;28;20876;-71
2021/10/17 12:05:28;;;;;;;8.17;4.47;;;13.40;99.90;;;;;;5117108;28;20457;-70
2021/10/17 12:07:58;;;;;;;7.57;4.03;;;13.30;99.90;;;;;;5117217;28;20494;-70
2021/10/17 12:10:27;;;;;;;7.20;3.70;;;13.40;99.90;;;;;;5117282;28;20467;-71
2021/10/17 12:12:59;;;;;;;7.10;3.40;;;13.40;99.90;;;;;;5117461;28;20517;-70
2021/10/17 12:15:26;;;;;;;7.70;3.97;;;13.40;99.90;;;;;;5117479;28;20464;-70
2021/10/17 12:17:59;;;;;;;14.30;3.90;;;13.70;99.90;;;;;;5117042;28;20950;-71
2021/10/17 12:20:29;;;;;;;5.10;3.83;;;14.00;99.90;;;;;;5116887;28;20521;-71
2021/10/17 12:22:56;;;;;;;7.93;3.67;;;14.10;99.90;;;;;;5117537;28;20547;-71
2021/10/17 12:25:23;;;;;;;11.37;3.93;;;14.10;99.90;;;;;;5117040;27;20466;-70
2021/10/17 12:27:50;;;;;;;5.40;3.40;;;13.90;99.90;;;;;;5117156;28;20460;-71
2021/10/17 12:30:20;;;;;;;9.50;3.57;;;13.80;99.90;;;;;;5117013;28;20453;-70
2021/10/17 12:32:49;;;;;;;7.63;3.60;;;13.70;99.90;;;;;;5116810;28;20870;-70
2021/10/17 12:35:33;;;;;;;6.70;3.90;;;13.70;99.90;;;;;;5117260;28;20791;-71
2021/10/17 12:38:07;;;;;;;9.97;3.97;;;13.60;99.90;;;;;;5117228;28;20515;-71
2021/10/17 12:40:35;;;;;;;6.17;2.87;;;13.50;99.90;;;;;;5117891;28;20477;-71
2021/10/17 12:43:04;;;;;;;7.70;3.40;;;13.40;99.90;;;;;;5116987;28;20460;-72
2021/10/17 12:45:32;;;;;;;8.40;3.80;;;13.40;99.90;;;;;;5117399;28;20460;-71
2021/10/17 12:48:00;;;;;;;9.00;3.70;;;13.40;99.90;;;;;;5116817;27;20468;-70
2021/10/17 12:50:36;;;;;;;9.73;4.03;;;13.50;99.90;;;;;;5116703;28;20456;-70
2021/10/17 12:53:06;;;;;;;5.37;3.00;;;13.40;99.90;;;;;;5117185;28;20503;-72
2021/10/17 12:55:35;;;;;;;8.80;4.27;;;13.50;99.90;;;;;;5116742;27;20438;-70